createdAt,value
2022-12-31T00:00:13.852Z,100.00
2022-12-31T00:02:45.806Z,100.00
2022-12-31T00:05:17.499Z,100.00
2022-12-31T00:07:49.415Z,100.00
2022-12-31T00:10:20.942Z,100.00
2022-12-31T00:12:52.931Z,100.00
2022-12-31T00:15:24.492Z,100.00
2022-12-31T00:17:56.358Z,100.00
2022-12-31T00:20:27.903Z,100.00
2022-12-31T00:22:59.876Z,100.00
2022-12-31T00:25:31.418Z,100.00
2022-12-31T00:28:03.399Z,100.00
2022-12-31T00:30:35.096Z,100.00
2022-12-31T00:33:07.095Z,100.00
2022-12-31T00:35:38.737Z,100.00
2022-12-31T00:38:10.781Z,100.00
2022-12-31T00:40:42.301Z,100.00
2022-12-31T00:43:14.233Z,100.00
2022-12-31T00:45:45.810Z,100.00
2022-12-31T00:48:17.994Z,100.00
2022-12-31T00:50:49.597Z,100.00
2022-12-31T00:53:21.543Z,100.00
2022-12-31T00:55:53.139Z,100.00
2022-12-31T00:58:24.964Z,100.00
2022-12-31T01:00:56.553Z,100.00
2022-12-31T01:03:28.556Z,100.00
2022-12-31T01:06:01.396Z,100.00
2022-12-31T01:08:33.339Z,100.00
2022-12-31T01:11:22.316Z,100.00
2022-12-31T01:13:54.665Z,100.00
2022-12-31T01:16:26.245Z,100.00
2022-12-31T01:18:58.381Z,100.00
2022-12-31T01:21:29.921Z,100.00
2022-12-31T01:24:01.943Z,100.00
2022-12-31T01:26:33.512Z,100.00
2022-12-31T01:29:05.429Z,100.00
2022-12-31T01:31:36.948Z,100.00
2022-12-31T01:34:08.977Z,100.00
2022-12-31T01:36:40.531Z,100.00
2022-12-31T01:39:13.228Z,100.00
2022-12-31T01:41:44.777Z,100.00
2022-12-31T01:44:16.669Z,100.00
2022-12-31T01:46:48.311Z,100.00
2022-12-31T01:49:20.179Z,100.00
2022-12-31T01:51:51.736Z,100.00
2022-12-31T01:54:23.780Z,100.00
2022-12-31T01:56:55.608Z,100.00
2022-12-31T01:59:27.453Z,100.00
2022-12-31T02:01:59.131Z,100.00
2022-12-31T02:04:31.249Z,100.00
2022-12-31T02:07:02.869Z,100.00
2022-12-31T02:09:34.874Z,100.00
2022-12-31T02:12:06.426Z,100.00
2022-12-31T02:14:38.279Z,100.00
2022-12-31T02:17:09.872Z,100.00
2022-12-31T02:19:42.147Z,100.00
2022-12-31T02:22:13.662Z,100.00
2022-12-31T02:24:45.770Z,100.00
2022-12-31T02:27:17.317Z,100.00
2022-12-31T02:29:49.478Z,100.00
2022-12-31T02:32:21.059Z,100.00
2022-12-31T02:34:53.046Z,100.00
2022-12-31T02:37:24.579Z,100.00
2022-12-31T02:39:56.452Z,100.00
2022-12-31T02:42:27.980Z,100.00
2022-12-31T02:44:59.987Z,100.00
2022-12-31T02:47:31.646Z,100.00
2022-12-31T02:50:03.720Z,100.00
2022-12-31T02:52:35.309Z,100.00
2022-12-31T02:55:07.212Z,100.00
2022-12-31T02:57:38.739Z,100.00
2022-12-31T03:00:29.378Z,100.00
2022-12-31T03:03:01.031Z,100.00
2022-12-31T03:05:32.895Z,100.00
2022-12-31T03:08:04.478Z,100.00
2022-12-31T03:10:36.349Z,100.00
2022-12-31T03:13:07.846Z,100.00
2022-12-31T03:15:39.728Z,100.00
2022-12-31T03:18:11.292Z,100.00
2022-12-31T03:21:01.725Z,100.00
2022-12-31T03:23:33.268Z,100.00
2022-12-31T03:26:10.627Z,100.00
2022-12-31T03:28:42.446Z,100.00
2022-12-31T03:31:14.348Z,100.00
2022-12-31T03:33:45.996Z,100.00
2022-12-31T03:36:18.121Z,100.00
2022-12-31T03:38:52.723Z,100.00
2022-12-31T03:41:24.947Z,100.00
2022-12-31T03:43:56.484Z,100.00
2022-12-31T03:46:28.343Z,100.00
2022-12-31T03:48:59.883Z,100.00
2022-12-31T03:51:31.861Z,100.00
2022-12-31T03:54:03.370Z,100.00
2022-12-31T03:56:35.528Z,100.00
2022-12-31T03:59:07.062Z,100.00
2022-12-31T04:01:39.421Z,100.00
2022-12-31T04:04:11.083Z,100.00
2022-12-31T04:06:43.159Z,100.00
2022-12-31T04:09:14.720Z,100.00
2022-12-31T04:11:46.700Z,100.00
2022-12-31T04:14:18.298Z,100.00
2022-12-31T04:16:50.419Z,100.00
2022-12-31T04:19:21.951Z,100.00
2022-12-31T04:21:53.912Z,100.00
2022-12-31T04:24:25.480Z,100.00
2022-12-31T04:27:02.102Z,100.00
2022-12-31T04:29:37.084Z,100.00
2022-12-31T04:34:51.766Z,100.00
2022-12-31T04:37:23.510Z,100.00
2022-12-31T04:39:56.954Z,100.00
2022-12-31T04:42:32.326Z,100.00
2022-12-31T04:45:04.011Z,100.00
2022-12-31T04:47:36.025Z,100.00
2022-12-31T04:50:07.567Z,100.00
2022-12-31T04:52:42.852Z,100.00
2022-12-31T04:55:14.667Z,100.00
2022-12-31T04:57:46.537Z,100.00
2022-12-31T05:00:18.023Z,100.00
2022-12-31T05:02:49.929Z,100.00
2022-12-31T05:05:21.534Z,100.00
2022-12-31T05:07:53.351Z,100.00
2022-12-31T05:10:24.929Z,100.00
2022-12-31T05:12:56.706Z,100.00
2022-12-31T05:15:28.199Z,100.00
2022-12-31T05:18:00.085Z,100.00
2022-12-31T05:20:31.623Z,100.00
2022-12-31T05:23:03.542Z,100.00
2022-12-31T05:25:35.018Z,100.00
2022-12-31T05:28:07.006Z,100.00
2022-12-31T05:30:38.533Z,100.00
2022-12-31T05:33:10.384Z,100.00
2022-12-31T05:35:41.874Z,100.00
2022-12-31T05:38:14.037Z,100.00
2022-12-31T05:40:45.641Z,100.00
2022-12-31T05:43:17.647Z,100.00
2022-12-31T05:45:49.145Z,100.00
2022-12-31T05:48:20.958Z,100.00
2022-12-31T05:50:52.472Z,100.00
2022-12-31T05:53:24.375Z,100.00
2022-12-31T05:55:55.857Z,100.00
2022-12-31T05:58:27.784Z,100.00
2022-12-31T06:00:59.320Z,100.00
2022-12-31T06:03:31.257Z,100.00
2022-12-31T06:06:02.748Z,100.00
2022-12-31T06:08:34.585Z,100.00
2022-12-31T06:11:06.063Z,100.00
2022-12-31T06:13:37.838Z,100.00
2022-12-31T06:16:09.414Z,100.00
2022-12-31T06:18:41.625Z,100.00
2022-12-31T06:21:13.125Z,100.00
2022-12-31T06:23:45.055Z,100.00
2022-12-31T06:26:16.568Z,100.00
2022-12-31T06:28:48.434Z,100.00
2022-12-31T06:31:20.013Z,100.00
2022-12-31T06:33:51.867Z,100.00
2022-12-31T06:36:23.469Z,100.00
2022-12-31T06:38:55.743Z,100.00
2022-12-31T06:41:27.244Z,100.00
2022-12-31T06:43:59.036Z,100.00
2022-12-31T06:46:30.533Z,100.00
2022-12-31T06:49:02.399Z,100.00
2022-12-31T06:51:33.902Z,100.00
2022-12-31T06:54:05.762Z,100.00
2022-12-31T06:56:37.271Z,100.00
2022-12-31T06:59:09.108Z,100.00
2022-12-31T07:01:40.651Z,100.00
2022-12-31T07:04:12.533Z,100.00
2022-12-31T07:06:44.148Z,100.00
2022-12-31T07:09:15.957Z,100.00
2022-12-31T07:11:47.475Z,100.00
2022-12-31T07:14:19.299Z,100.00
2022-12-31T07:16:50.790Z,100.00
2022-12-31T07:19:22.625Z,100.00
2022-12-31T07:21:54.491Z,100.00
2022-12-31T07:24:26.559Z,100.00
2022-12-31T07:26:58.067Z,100.00
2022-12-31T07:29:29.931Z,100.00
2022-12-31T07:32:01.484Z,100.00
2022-12-31T07:34:33.383Z,100.00
2022-12-31T07:37:04.860Z,100.00
2022-12-31T07:39:36.888Z,100.00
2022-12-31T07:42:08.360Z,100.00
2022-12-31T07:44:40.138Z,100.00
2022-12-31T07:47:11.621Z,100.00
2022-12-31T07:49:43.784Z,100.00
2022-12-31T07:52:15.278Z,100.00
2022-12-31T07:54:47.162Z,100.00
2022-12-31T07:57:18.638Z,100.00
2022-12-31T07:59:50.528Z,100.00
2022-12-31T08:02:22.116Z,100.00
2022-12-31T08:04:54.172Z,100.00
2022-12-31T08:07:25.675Z,100.00
2022-12-31T08:09:58.463Z,100.00
2022-12-31T08:12:29.960Z,100.00
2022-12-31T08:15:01.914Z,100.00
2022-12-31T08:17:33.394Z,100.00
2022-12-31T08:20:05.237Z,100.00
2022-12-31T08:22:36.763Z,100.00
2022-12-31T08:25:08.832Z,100.00
2022-12-31T08:27:41.976Z,100.00
2022-12-31T08:30:13.793Z,100.00
2022-12-31T08:32:45.295Z,100.00
2022-12-31T08:35:17.260Z,100.00
2022-12-31T08:37:48.849Z,100.00
2022-12-31T08:40:20.700Z,100.00
2022-12-31T08:42:52.316Z,100.00
2022-12-31T08:45:24.168Z,100.00
2022-12-31T08:47:59.838Z,100.00
2022-12-31T08:50:32.155Z,100.00
2022-12-31T08:53:03.631Z,100.00
2022-12-31T08:55:35.577Z,100.00
2022-12-31T08:58:07.071Z,100.00
2022-12-31T09:00:38.916Z,100.00
2022-12-31T09:03:10.450Z,100.00
2022-12-31T09:05:42.332Z,100.00
2022-12-31T09:08:13.861Z,100.00
2022-12-31T09:10:45.743Z,100.00
2022-12-31T09:13:17.352Z,100.00
2022-12-31T09:15:49.506Z,100.00
2022-12-31T09:18:21.380Z,100.00
2022-12-31T09:20:52.902Z,100.00
2022-12-31T09:23:24.889Z,100.00
2022-12-31T09:25:56.373Z,100.00
2022-12-31T09:28:28.191Z,99.28
2022-12-31T09:30:59.702Z,96.94
2022-12-31T09:33:31.580Z,97.23
2022-12-31T09:36:03.195Z,95.95
2022-12-31T09:38:35.019Z,95.27
2022-12-31T09:41:06.504Z,94.48
2022-12-31T09:43:38.288Z,94.14
2022-12-31T09:46:09.879Z,95.24
2022-12-31T09:48:41.725Z,95.41
2022-12-31T09:51:13.208Z,93.47
2022-12-31T09:53:45.164Z,93.55
2022-12-31T09:56:16.746Z,93.25
2022-12-31T09:58:48.631Z,92.99
2022-12-31T10:01:20.234Z,93.10
2022-12-31T10:03:52.104Z,93.67
2022-12-31T10:06:23.693Z,93.59
2022-12-31T10:08:57.098Z,93.52
2022-12-31T10:11:28.667Z,94.65
2022-12-31T10:14:00.482Z,94.40
2022-12-31T10:16:32.081Z,94.40
2022-12-31T10:19:03.965Z,92.73
2022-12-31T10:21:35.456Z,92.67
2022-12-31T10:24:07.406Z,92.15
2022-12-31T10:26:38.928Z,90.55
2022-12-31T10:29:10.661Z,90.81
2022-12-31T10:31:42.266Z,90.50
2022-12-31T10:34:14.171Z,90.66
2022-12-31T10:36:45.696Z,89.76
2022-12-31T10:39:23.856Z,89.80
2022-12-31T10:41:56.024Z,90.33
2022-12-31T10:44:27.864Z,89.55
2022-12-31T10:46:59.389Z,90.22
2022-12-31T10:49:31.271Z,90.10
2022-12-31T10:52:02.816Z,89.87
2022-12-31T10:54:34.625Z,90.24
2022-12-31T10:57:07.359Z,90.14
2022-12-31T10:59:39.328Z,89.97
2022-12-31T11:02:11.049Z,89.28
2022-12-31T11:04:42.979Z,89.73
2022-12-31T11:07:14.529Z,89.47
2022-12-31T11:09:46.938Z,89.53
2022-12-31T11:12:18.445Z,89.74
2022-12-31T11:14:50.307Z,89.61
2022-12-31T11:17:21.873Z,89.88
2022-12-31T11:19:53.607Z,90.23
2022-12-31T11:22:25.190Z,90.29
2022-12-31T11:24:56.880Z,90.56
2022-12-31T11:27:28.372Z,90.30
2022-12-31T11:30:00.298Z,90.30
2022-12-31T11:32:31.823Z,90.46
2022-12-31T11:35:04.003Z,90.28
2022-12-31T11:37:35.597Z,89.87
2022-12-31T11:40:07.357Z,89.59
2022-12-31T11:42:38.912Z,89.35
2022-12-31T11:45:10.771Z,88.54
2022-12-31T11:48:04.302Z,88.62
2022-12-31T11:50:34.109Z,88.79
2022-12-31T11:53:05.625Z,88.54
2022-12-31T11:55:37.455Z,87.70
2022-12-31T11:58:08.978Z,87.11
2022-12-31T12:00:40.833Z,86.46
2022-12-31T12:03:12.417Z,86.15
2022-12-31T12:05:44.311Z,86.19
2022-12-31T12:08:15.839Z,86.52
2022-12-31T12:10:47.861Z,85.99
2022-12-31T12:13:19.391Z,85.92
2022-12-31T12:15:51.395Z,85.41
2022-12-31T12:18:23.013Z,86.26
2022-12-31T12:20:56.321Z,86.09
2022-12-31T12:23:27.881Z,86.27
2022-12-31T12:26:00.109Z,86.81
2022-12-31T12:28:31.664Z,86.97
2022-12-31T12:31:04.980Z,86.99
2022-12-31T12:33:36.522Z,87.41
2022-12-31T12:36:08.419Z,86.97
2022-12-31T12:38:39.914Z,86.38
2022-12-31T12:41:11.963Z,86.61
2022-12-31T12:43:43.478Z,86.72
2022-12-31T12:46:15.310Z,86.58
2022-12-31T12:48:46.869Z,86.40
2022-12-31T12:51:18.794Z,85.90
2022-12-31T12:53:50.327Z,86.25
2022-12-31T12:56:23.029Z,85.91
2022-12-31T12:58:54.547Z,85.85
2022-12-31T13:01:27.345Z,85.47
2022-12-31T13:06:50.947Z,84.59
2022-12-31T13:09:22.507Z,84.48
2022-12-31T13:11:54.300Z,84.76
2022-12-31T13:14:25.812Z,84.17
2022-12-31T13:16:57.670Z,84.15
2022-12-31T13:19:29.493Z,84.12
2022-12-31T13:22:01.339Z,85.00
2022-12-31T13:24:32.852Z,84.56
2022-12-31T13:27:04.802Z,84.32
2022-12-31T13:29:36.318Z,84.85
2022-12-31T13:32:08.179Z,84.70
2022-12-31T13:34:39.724Z,84.87
2022-12-31T13:37:11.689Z,84.29
2022-12-31T13:39:43.199Z,84.50
2022-12-31T13:42:15.024Z,84.52
2022-12-31T13:44:47.744Z,83.48
2022-12-31T13:47:19.583Z,84.18
2022-12-31T13:49:51.545Z,83.87
2022-12-31T13:52:23.423Z,84.12
2022-12-31T13:54:55.023Z,84.12
2022-12-31T13:57:26.866Z,84.43
2022-12-31T13:59:58.382Z,84.49
2022-12-31T14:02:30.413Z,84.37
2022-12-31T14:05:02.426Z,84.64
2022-12-31T14:07:38.861Z,84.66
2022-12-31T14:10:15.493Z,84.87
2022-12-31T14:12:47.280Z,84.63
2022-12-31T14:15:19.177Z,84.91
2022-12-31T14:17:50.748Z,84.89
2022-12-31T14:20:22.583Z,84.88
2022-12-31T14:22:54.101Z,85.27
2022-12-31T14:25:26.006Z,85.00
2022-12-31T14:27:57.602Z,85.58
2022-12-31T14:30:31.238Z,85.21
2022-12-31T14:33:02.772Z,85.88
2022-12-31T14:35:34.608Z,85.69
2022-12-31T14:38:06.146Z,85.85
2022-12-31T14:40:38.023Z,86.62
2022-12-31T14:43:09.537Z,86.61
2022-12-31T14:45:41.447Z,86.65
2022-12-31T14:48:17.112Z,86.47
2022-12-31T14:50:51.867Z,87.10
2022-12-31T14:53:23.535Z,87.45
2022-12-31T14:55:55.401Z,88.26
2022-12-31T14:58:28.371Z,88.24
2022-12-31T15:01:00.743Z,88.69
2022-12-31T15:03:33.264Z,89.14
2022-12-31T15:06:05.164Z,89.65
2022-12-31T15:08:36.680Z,89.10
2022-12-31T15:11:09.047Z,89.47
2022-12-31T15:13:40.566Z,89.19
2022-12-31T15:16:12.442Z,89.25
2022-12-31T15:18:43.996Z,89.70
2022-12-31T15:21:15.934Z,89.39
2022-12-31T15:23:49.474Z,89.26
2022-12-31T15:26:21.270Z,89.45
2022-12-31T15:28:52.759Z,89.43
2022-12-31T15:31:24.668Z,89.54
2022-12-31T15:33:56.263Z,89.79
2022-12-31T15:36:28.230Z,89.73
2022-12-31T15:38:59.751Z,89.48
2022-12-31T15:41:31.686Z,89.75
2022-12-31T15:44:03.264Z,89.91
2022-12-31T15:46:35.262Z,89.73
2022-12-31T15:49:11.769Z,89.36
2022-12-31T15:51:47.040Z,89.52
2022-12-31T15:54:18.564Z,89.13
2022-12-31T15:56:50.400Z,89.31
2022-12-31T15:59:22.245Z,89.83
2022-12-31T16:01:54.033Z,90.06
2022-12-31T16:04:25.643Z,89.88
2022-12-31T16:06:57.720Z,89.50
2022-12-31T16:09:29.251Z,89.65
2022-12-31T16:12:01.128Z,89.25
2022-12-31T16:14:33.202Z,89.61
2022-12-31T16:17:05.093Z,88.96
2022-12-31T16:19:36.704Z,89.26
2022-12-31T16:22:08.567Z,88.92
2022-12-31T16:25:02.804Z,88.92
2022-12-31T16:27:32.085Z,88.48
2022-12-31T16:30:04.933Z,87.90
2022-12-31T16:32:36.827Z,87.52
2022-12-31T16:35:17.513Z,87.83
2022-12-31T16:37:52.095Z,86.74
2022-12-31T16:40:24.734Z,87.15
2022-12-31T16:42:56.732Z,86.51
2022-12-31T16:45:28.244Z,85.85
2022-12-31T16:48:00.183Z,85.54
2022-12-31T16:50:31.719Z,85.24
2022-12-31T16:53:04.312Z,85.32
2022-12-31T16:55:35.903Z,85.20
2022-12-31T16:58:07.784Z,84.91
2022-12-31T17:00:39.444Z,84.80
2022-12-31T17:03:11.341Z,84.52
2022-12-31T17:05:42.940Z,84.08
2022-12-31T17:08:14.809Z,83.99
2022-12-31T17:10:46.678Z,84.02
2022-12-31T17:13:28.930Z,83.37
2022-12-31T17:16:01.409Z,83.73
2022-12-31T17:18:32.983Z,83.54
2022-12-31T17:21:04.864Z,83.89
2022-12-31T17:23:36.477Z,84.27
2022-12-31T17:26:08.390Z,84.30
2022-12-31T17:28:39.941Z,83.71
2022-12-31T17:31:11.909Z,83.58
2022-12-31T17:33:43.478Z,84.08
2022-12-31T17:36:15.638Z,83.75
2022-12-31T17:38:47.260Z,84.08
2022-12-31T17:41:18.969Z,83.75
2022-12-31T17:43:50.507Z,83.71
2022-12-31T17:46:22.340Z,83.65
2022-12-31T17:48:54.066Z,83.61
2022-12-31T17:51:26.012Z,83.46
2022-12-31T17:53:57.530Z,83.19
2022-12-31T17:56:29.454Z,83.63
2022-12-31T17:59:00.996Z,83.54
2022-12-31T18:01:32.951Z,83.85
2022-12-31T18:04:04.579Z,83.26
2022-12-31T18:06:36.436Z,83.29
2022-12-31T18:09:07.978Z,83.11
2022-12-31T18:11:39.815Z,83.06
2022-12-31T18:14:11.323Z,83.55
2022-12-31T18:16:43.248Z,83.79
2022-12-31T18:19:37.779Z,83.72
2022-12-31T18:22:07.073Z,83.35
2022-12-31T18:24:38.599Z,83.59
2022-12-31T18:27:10.660Z,83.69
2022-12-31T18:29:42.233Z,84.33
2022-12-31T18:32:14.346Z,83.44
2022-12-31T18:34:45.865Z,83.75
2022-12-31T18:37:21.791Z,84.04
2022-12-31T18:39:53.869Z,84.12
2022-12-31T18:42:25.727Z,84.61
2022-12-31T18:44:57.347Z,84.76
2022-12-31T18:47:32.742Z,84.92
2022-12-31T18:50:08.942Z,85.12
2022-12-31T18:52:40.925Z,85.61
2022-12-31T18:55:12.593Z,86.70
2022-12-31T18:57:44.419Z,86.97
2022-12-31T19:00:15.958Z,87.71
2022-12-31T19:02:47.957Z,88.58
2022-12-31T19:05:19.513Z,88.77
2022-12-31T19:07:51.397Z,89.44
2022-12-31T19:10:23.010Z,89.83
2022-12-31T19:12:55.041Z,89.80
2022-12-31T19:15:26.561Z,89.83
2022-12-31T19:17:58.475Z,90.19
2022-12-31T19:20:30.035Z,89.85
2022-12-31T19:23:02.078Z,89.49
2022-12-31T19:25:33.807Z,89.51
2022-12-31T19:28:05.867Z,88.82
2022-12-31T19:30:37.435Z,89.11
2022-12-31T19:33:09.277Z,88.41
2022-12-31T19:35:41.672Z,88.61
2022-12-31T19:38:13.510Z,88.30
2022-12-31T19:40:45.054Z,88.48
2022-12-31T19:43:16.971Z,88.49
2022-12-31T19:45:48.608Z,88.20
2022-12-31T19:48:20.572Z,88.15
2022-12-31T19:50:52.154Z,87.66
2022-12-31T19:53:24.074Z,87.99
2022-12-31T19:55:55.635Z,88.45
2022-12-31T19:58:27.575Z,88.20
2022-12-31T20:01:02.722Z,88.15
2022-12-31T20:03:35.425Z,88.13
2022-12-31T20:06:07.137Z,87.32
2022-12-31T20:08:39.148Z,87.67
2022-12-31T20:11:10.740Z,87.02
2022-12-31T20:13:42.709Z,86.80
2022-12-31T20:16:14.370Z,86.52
2022-12-31T20:18:46.304Z,85.99
2022-12-31T20:21:17.939Z,85.76
2022-12-31T20:23:49.812Z,85.37
2022-12-31T20:26:21.344Z,84.83
2022-12-31T20:28:53.128Z,85.15
2022-12-31T20:31:24.774Z,84.90
2022-12-31T20:33:56.869Z,85.00
2022-12-31T20:36:28.397Z,84.52
2022-12-31T20:39:00.353Z,84.17
2022-12-31T20:41:34.803Z,83.50
2022-12-31T20:44:06.650Z,82.96
2022-12-31T20:46:38.256Z,82.92
2022-12-31T20:49:10.237Z,82.65
2022-12-31T20:51:42.772Z,82.27
2022-12-31T20:54:17.036Z,82.05
2022-12-31T20:56:48.546Z,81.94
2022-12-31T20:59:20.433Z,82.41
2022-12-31T21:04:46.409Z,81.24
2022-12-31T21:07:18.095Z,80.49
2022-12-31T21:09:50.021Z,80.76
2022-12-31T21:12:40.097Z,80.61
2022-12-31T21:15:12.163Z,80.20
2022-12-31T21:17:43.722Z,79.51
2022-12-31T21:20:15.688Z,79.65
2022-12-31T21:22:47.230Z,79.78
2022-12-31T21:25:19.115Z,79.96
2022-12-31T21:27:50.647Z,79.78
2022-12-31T21:30:22.535Z,79.78
2022-12-31T21:32:54.132Z,79.33
2022-12-31T21:35:47.026Z,78.76
2022-12-31T21:38:17.716Z,78.90
2022-12-31T21:40:49.663Z,78.63
2022-12-31T21:43:21.313Z,78.63
2022-12-31T21:45:53.206Z,78.53
2022-12-31T21:48:25.045Z,78.31
2022-12-31T21:50:57.032Z,78.65
2022-12-31T21:53:36.119Z,78.51
2022-12-31T21:56:08.832Z,78.64
2022-12-31T21:58:40.459Z,79.00
2022-12-31T22:01:31.084Z,78.59
2022-12-31T22:04:03.081Z,78.47
2022-12-31T22:06:34.611Z,78.90
2022-12-31T22:09:06.467Z,77.89
2022-12-31T22:11:37.978Z,77.78
2022-12-31T22:14:09.843Z,78.07
2022-12-31T22:16:41.415Z,78.37
2022-12-31T22:19:13.098Z,78.51
2022-12-31T22:21:44.622Z,78.85
2022-12-31T22:24:16.545Z,78.90
2022-12-31T22:26:48.053Z,78.63
2022-12-31T22:29:21.785Z,78.55
2022-12-31T22:31:57.993Z,78.85
2022-12-31T22:34:32.846Z,78.50
2022-12-31T22:37:20.365Z,78.46
2022-12-31T22:39:56.227Z,78.23
2022-12-31T22:42:27.750Z,79.27
2022-12-31T22:44:59.574Z,78.38
2022-12-31T22:47:31.158Z,78.37
2022-12-31T22:50:03.005Z,78.49
2022-12-31T22:52:34.577Z,78.43
2022-12-31T22:55:06.581Z,78.12
2022-12-31T22:57:38.153Z,78.10
2022-12-31T23:00:10.385Z,77.85
2022-12-31T23:02:43.286Z,77.72
2022-12-31T23:05:16.475Z,77.41
2022-12-31T23:07:48.196Z,77.63
2022-12-31T23:10:39.043Z,77.77
2022-12-31T23:13:29.427Z,77.52
2022-12-31T23:16:20.008Z,76.75
2022-12-31T23:19:10.437Z,77.00
2022-12-31T23:22:00.928Z,76.52
2022-12-31T23:24:32.857Z,75.71
2022-12-31T23:27:04.448Z,75.81
2022-12-31T23:29:41.959Z,75.50
2022-12-31T23:32:17.459Z,75.66
2022-12-31T23:34:49.281Z,75.56
2022-12-31T23:37:20.819Z,75.58
2022-12-31T23:39:52.748Z,75.04
2022-12-31T23:42:24.267Z,75.16
2022-12-31T23:44:56.187Z,75.41
2022-12-31T23:47:27.719Z,74.84
2022-12-31T23:49:59.542Z,75.14
2022-12-31T23:52:31.092Z,74.74
2022-12-31T23:55:04.048Z,74.88
2022-12-31T23:57:35.573Z,73.29
